West Yellowstone, Montana
Current Conditions -  °F | °C
As of 2:56 AM on Thursday 27 Nov 2014 (Local Time) from KDIJ Reporting Station
Clear Clear  
Wind Chill:   Ceiling: Unl
Heat Index:   Visibility: 10mi
Dew Point: -2°   Wind: 9mph
Humidity: 63%   Direction: 180°S
Pressure: 30.27"   Gusts: NA
Location:  44.66°N, 111.1°W
Report Text: KDIJ 270956Z AUTO 18008KT 10SM CLR 04/M02 A3027 RMK AO2 T00441022 SLP224
Loading
Personal Weather Stations






























Interactive Weather Map New forecast layout! Learn more

10-Day Weather Forecast

Advertisements
Track Severe Weather on mobile